createdAt,value
2018-12-11T00:01:00.016Z,5.83
2018-12-11T00:03:28.193Z,5.23
2018-12-11T00:05:57.888Z,5.23
2018-12-11T00:08:26.106Z,5.13
2018-12-11T00:10:54.443Z,5.60
2018-12-11T00:13:22.662Z,5.03
2018-12-11T00:15:50.950Z,4.93
2018-12-11T00:18:19.119Z,5.80
2018-12-11T00:20:47.556Z,6.03
2018-12-11T00:23:15.740Z,5.20
2018-12-11T00:25:44.020Z,5.80
2018-12-11T00:28:12.504Z,5.47
2018-12-11T00:30:40.689Z,6.70
2018-12-11T00:33:08.868Z,4.90
2018-12-11T00:35:37.050Z,5.90
2018-12-11T00:38:05.228Z,5.83
2018-12-11T00:40:33.408Z,5.13
2018-12-11T00:43:01.680Z,5.40
2018-12-11T00:45:29.858Z,5.57
2018-12-11T00:47:58.416Z,5.37
2018-12-11T00:50:26.612Z,5.33
2018-12-11T00:52:54.801Z,4.63
2018-12-11T00:55:23.013Z,5.20
2018-12-11T00:57:51.248Z,5.23
2018-12-11T01:00:19.436Z,5.47
2018-12-11T01:02:47.623Z,4.87
2018-12-11T01:05:15.892Z,6.53
2018-12-11T01:07:44.063Z,5.67
2018-12-11T01:10:12.331Z,4.80
2018-12-11T01:12:40.796Z,4.53
2018-12-11T01:15:09.161Z,4.93
2018-12-11T01:17:37.432Z,5.33
2018-12-11T01:20:06.444Z,4.90
2018-12-11T01:22:34.632Z,5.57
2018-12-11T01:25:02.901Z,5.20
2018-12-11T01:27:31.088Z,4.50
2018-12-11T01:29:59.540Z,4.57
2018-12-11T01:32:27.734Z,4.73
2018-12-11T01:34:56.058Z,5.20
2018-12-11T01:37:24.282Z,4.73
2018-12-11T01:39:52.481Z,4.87
2018-12-11T01:42:20.673Z,5.07
2018-12-11T01:44:48.849Z,4.90
2018-12-11T01:47:17.124Z,5.67
2018-12-11T01:49:45.296Z,5.43
2018-12-11T01:52:13.573Z,5.07
2018-12-11T01:54:41.744Z,4.80
2018-12-11T01:57:09.931Z,4.97
2018-12-11T01:59:38.116Z,4.67
2018-12-11T02:02:06.392Z,5.00
2018-12-11T02:04:34.574Z,4.47
2018-12-11T02:07:02.841Z,3.93
2018-12-11T02:09:31.020Z,4.47
2018-12-11T02:11:59.212Z,4.37
2018-12-11T02:14:27.628Z,4.17
2018-12-11T02:16:55.917Z,4.40
2018-12-11T02:19:24.119Z,4.30
2018-12-11T02:21:52.295Z,3.60
2018-12-11T02:24:20.461Z,4.33
2018-12-11T02:26:48.910Z,3.37
2018-12-11T02:29:17.159Z,3.63
2018-12-11T02:31:45.457Z,4.40
2018-12-11T02:34:13.611Z,4.03
2018-12-11T02:36:41.781Z,3.93
2018-12-11T02:39:10.035Z,3.23
2018-12-11T02:41:38.225Z,3.23
2018-12-11T02:44:06.388Z,3.57
2018-12-11T02:46:34.554Z,3.93
2018-12-11T02:49:02.716Z,3.83
2018-12-11T02:51:30.873Z,3.90
2018-12-11T02:53:59.045Z,4.07
2018-12-11T02:56:27.209Z,3.10
2018-12-11T02:58:55.389Z,3.43
2018-12-11T03:01:23.673Z,3.43
2018-12-11T03:03:51.880Z,3.63
2018-12-11T03:06:20.075Z,4.70
2018-12-11T03:08:48.246Z,3.43
2018-12-11T03:11:16.433Z,4.20
2018-12-11T03:13:44.617Z,4.00
2018-12-11T03:16:12.797Z,3.50
2018-12-11T03:18:40.988Z,3.37
2018-12-11T03:21:09.164Z,4.67
2018-12-11T03:23:37.358Z,2.97
2018-12-11T03:26:05.636Z,4.17
2018-12-11T03:28:33.830Z,3.60
2018-12-11T03:31:02.029Z,3.70
2018-12-11T03:33:30.208Z,3.00
2018-12-11T03:35:58.388Z,3.87
2018-12-11T03:38:26.593Z,3.27
2018-12-11T03:40:54.906Z,3.17
2018-12-11T03:43:23.110Z,5.07
2018-12-11T03:45:51.372Z,3.13
2018-12-11T03:48:19.557Z,2.63
2018-12-11T03:50:47.728Z,3.43
2018-12-11T03:53:15.923Z,2.97
2018-12-11T03:55:44.428Z,2.60
2018-12-11T03:58:12.617Z,2.27
2018-12-11T04:00:40.806Z,2.97
2018-12-11T04:03:08.996Z,2.37
2018-12-11T04:05:37.180Z,2.40
2018-12-11T04:08:05.370Z,2.63
2018-12-11T04:10:33.547Z,3.17
2018-12-11T04:13:01.726Z,2.43
2018-12-11T04:15:30.073Z,2.30
2018-12-11T04:17:58.266Z,2.30
2018-12-11T04:20:26.593Z,2.53
2018-12-11T04:22:54.791Z,3.40
2018-12-11T04:25:23.445Z,2.53
2018-12-11T04:27:51.671Z,2.43
2018-12-11T04:30:19.885Z,2.80
2018-12-11T04:32:48.040Z,2.57
2018-12-11T04:35:16.208Z,2.53
2018-12-11T04:37:44.372Z,2.47
2018-12-11T04:40:12.540Z,2.17
2018-12-11T04:42:41.019Z,2.43
2018-12-11T04:45:09.270Z,2.77
2018-12-11T04:47:37.428Z,2.60
2018-12-11T04:50:06.064Z,3.00
2018-12-11T04:52:34.228Z,2.97
2018-12-11T04:55:02.521Z,2.77
2018-12-11T04:57:30.713Z,3.17
2018-12-11T04:59:58.977Z,2.90
2018-12-11T05:02:27.476Z,2.60
2018-12-11T05:04:55.728Z,2.63
2018-12-11T05:07:23.894Z,2.90
2018-12-11T05:09:52.056Z,2.83
2018-12-11T05:12:20.553Z,3.60
2018-12-11T05:14:48.728Z,3.33
2018-12-11T05:17:16.892Z,3.17
2018-12-11T05:19:45.051Z,2.73
2018-12-11T05:22:13.217Z,3.07
2018-12-11T05:24:41.380Z,3.10
2018-12-11T05:27:09.548Z,2.70
2018-12-11T05:29:37.762Z,3.07
2018-12-11T05:32:06.081Z,2.70
2018-12-11T05:34:34.432Z,2.60
2018-12-11T05:37:03.184Z,2.67
2018-12-11T05:39:31.376Z,2.40
2018-12-11T05:41:59.532Z,3.10
2018-12-11T05:44:27.703Z,4.53
2018-12-11T05:46:55.902Z,2.77
2018-12-11T05:49:24.083Z,3.00
2018-12-11T05:51:52.243Z,2.67
2018-12-11T05:54:20.497Z,2.80
2018-12-11T05:56:48.664Z,2.83
2018-12-11T05:59:16.836Z,2.77
2018-12-11T06:01:45.253Z,2.90
2018-12-11T06:04:13.516Z,2.83
2018-12-11T06:06:42.514Z,3.70
2018-12-11T06:09:10.844Z,2.37
2018-12-11T06:11:39.213Z,2.77
2018-12-11T06:14:07.423Z,2.53
2018-12-11T06:16:35.817Z,3.23
2018-12-11T06:19:04.130Z,3.17
2018-12-11T06:21:32.320Z,2.63
2018-12-11T06:24:00.532Z,3.50
2018-12-11T06:26:28.720Z,3.23
2018-12-11T06:28:56.988Z,2.97
2018-12-11T06:31:25.172Z,2.97
2018-12-11T06:33:53.372Z,3.17
2018-12-11T06:36:21.564Z,2.43
2018-12-11T06:38:49.833Z,3.00
2018-12-11T06:41:18.112Z,3.30
2018-12-11T06:43:46.304Z,3.03
2018-12-11T06:46:14.484Z,3.70
2018-12-11T06:48:42.696Z,5.83
2018-12-11T06:51:10.877Z,4.63
2018-12-11T06:53:39.056Z,5.47
2018-12-11T06:56:07.236Z,5.60
2018-12-11T06:58:35.413Z,4.57
2018-12-11T07:01:03.721Z,3.33
2018-12-11T07:03:31.928Z,3.43
2018-12-11T07:06:00.125Z,4.90
2018-12-11T07:08:28.304Z,4.30
2018-12-11T07:10:56.496Z,3.63
2018-12-11T07:13:24.745Z,3.57
2018-12-11T07:15:52.912Z,3.40
2018-12-11T07:18:25.897Z,4.40
2018-12-11T07:20:51.400Z,3.37
2018-12-11T07:23:19.612Z,4.83
2018-12-11T07:25:47.783Z,5.77
2018-12-11T07:28:15.946Z,5.10
2018-12-11T07:30:44.200Z,4.50
2018-12-11T07:33:12.475Z,3.73
2018-12-11T07:35:40.812Z,4.07
2018-12-11T07:38:08.975Z,3.70
2018-12-11T07:40:37.144Z,3.07
2018-12-11T07:43:05.388Z,3.63
2018-12-11T07:45:33.649Z,4.43
2018-12-11T07:48:01.813Z,3.87
2018-12-11T07:50:30.022Z,3.87
2018-12-11T07:52:58.211Z,2.93
2018-12-11T07:55:26.389Z,3.60
2018-12-11T07:57:54.999Z,3.30
2018-12-11T08:00:23.252Z,3.90
2018-12-11T08:02:51.501Z,3.53
2018-12-11T08:05:19.668Z,3.93
2018-12-11T08:07:47.838Z,5.47
2018-12-11T08:10:16.022Z,5.13
2018-12-11T08:12:44.296Z,3.97
2018-12-11T08:15:12.484Z,3.37
2018-12-11T08:17:40.674Z,3.77
2018-12-11T08:20:09.037Z,5.33
2018-12-11T08:22:37.224Z,5.17
2018-12-11T08:25:05.453Z,4.23
2018-12-11T08:27:33.640Z,4.50
2018-12-11T08:30:02.105Z,3.43
2018-12-11T08:32:30.481Z,3.67
2018-12-11T08:34:58.655Z,3.37
2018-12-11T08:37:26.849Z,3.93
2018-12-11T08:39:55.056Z,4.07
2018-12-11T08:42:23.388Z,3.63
2018-12-11T08:44:51.602Z,2.80
2018-12-11T08:47:19.898Z,4.37
2018-12-11T08:49:48.064Z,4.50
2018-12-11T08:52:16.267Z,3.60
2018-12-11T08:54:44.449Z,4.33
2018-12-11T08:57:12.636Z,3.87
2018-12-11T08:59:40.905Z,3.47
2018-12-11T09:02:09.080Z,4.87
2018-12-11T09:04:37.253Z,4.47
2018-12-11T09:07:05.437Z,3.40
2018-12-11T09:09:33.607Z,3.30
2018-12-11T09:12:01.887Z,3.00
2018-12-11T09:14:30.068Z,3.67
2018-12-11T09:16:58.476Z,3.53
2018-12-11T09:19:26.657Z,5.13
2018-12-11T09:21:54.853Z,4.33
2018-12-11T09:24:23.066Z,3.70
2018-12-11T09:26:51.286Z,3.00
2018-12-11T09:29:19.477Z,3.50
2018-12-11T09:31:47.672Z,4.87
2018-12-11T09:34:15.849Z,6.10
2018-12-11T09:36:44.028Z,3.90
2018-12-11T09:39:12.217Z,3.40
2018-12-11T09:41:40.709Z,3.27
2018-12-11T09:44:08.893Z,4.50
2018-12-11T09:46:37.456Z,5.33
2018-12-11T09:49:05.635Z,4.10
2018-12-11T09:51:33.912Z,3.87
2018-12-11T09:54:02.105Z,3.77
2018-12-11T09:56:30.385Z,5.73
2018-12-11T09:58:58.821Z,4.93
2018-12-11T10:01:26.979Z,4.77
2018-12-11T10:03:55.616Z,4.67
2018-12-11T10:06:23.936Z,3.67
2018-12-11T10:08:54.418Z,3.10
2018-12-11T10:11:22.616Z,3.53
2018-12-11T10:13:50.797Z,4.27
2018-12-11T10:16:18.978Z,3.53
2018-12-11T10:18:47.156Z,3.00
2018-12-11T10:21:15.360Z,2.97
2018-12-11T10:23:43.820Z,3.30
2018-12-11T10:26:12.000Z,3.33
2018-12-11T10:28:40.185Z,4.00
2018-12-11T10:31:08.543Z,5.13
2018-12-11T10:33:36.816Z,4.10
2018-12-11T10:36:05.181Z,3.00
2018-12-11T10:38:33.376Z,3.77
2018-12-11T10:41:01.558Z,3.17
2018-12-11T10:43:29.777Z,4.27
2018-12-11T10:45:58.001Z,3.70
2018-12-11T10:48:26.197Z,3.10
2018-12-11T10:50:54.648Z,3.10
2018-12-11T10:53:22.833Z,3.83
2018-12-11T10:55:51.012Z,2.97
2018-12-11T10:58:19.189Z,3.63
2018-12-11T11:00:51.596Z,4.30
2018-12-11T11:03:19.780Z,4.33
2018-12-11T11:05:47.953Z,3.50
2018-12-11T11:08:16.141Z,4.37
2018-12-11T11:10:44.327Z,2.87
2018-12-11T11:13:12.508Z,2.90
2018-12-11T11:15:40.777Z,3.33
2018-12-11T11:18:08.965Z,4.10
2018-12-11T11:20:37.166Z,3.50
2018-12-11T11:23:05.580Z,3.30
2018-12-11T11:25:33.773Z,3.97
2018-12-11T11:28:02.354Z,5.17
2018-12-11T11:30:30.616Z,3.80
2018-12-11T11:32:58.892Z,4.00
2018-12-11T11:35:27.070Z,3.50
2018-12-11T11:37:55.544Z,3.10
2018-12-11T11:40:23.825Z,3.53
2018-12-11T11:42:52.081Z,4.43
2018-12-11T11:45:20.253Z,5.17
2018-12-11T11:47:48.437Z,5.00
2018-12-11T11:50:18.234Z,4.90
2018-12-11T11:52:46.412Z,5.00
2018-12-11T11:55:14.820Z,5.30
2018-12-11T11:57:43.093Z,5.33
2018-12-11T12:00:13.978Z,6.50
2018-12-11T12:02:42.169Z,4.90
2018-12-11T12:05:10.520Z,4.07
2018-12-11T12:07:38.970Z,5.60
2018-12-11T12:10:09.831Z,4.43
2018-12-11T12:12:38.133Z,4.83
2018-12-11T12:15:07.706Z,6.23
2018-12-11T12:17:36.276Z,4.97
2018-12-11T12:20:06.912Z,5.53
2018-12-11T12:22:35.104Z,4.47
2018-12-11T12:25:03.429Z,4.00
2018-12-11T12:27:31.701Z,4.70
2018-12-11T12:29:59.862Z,3.27
2018-12-11T12:32:28.026Z,3.40
2018-12-11T12:34:56.176Z,4.07
2018-12-11T12:37:24.689Z,3.87
2018-12-11T12:39:53.164Z,4.80
2018-12-11T12:42:21.332Z,6.10
2018-12-11T12:44:49.660Z,7.13
2018-12-11T12:47:17.821Z,7.07
2018-12-11T12:49:50.583Z,6.57
2018-12-11T12:52:16.440Z,5.80
2018-12-11T12:54:44.605Z,4.93
2018-12-11T12:57:12.757Z,5.00
2018-12-11T12:59:40.924Z,5.10
2018-12-11T13:02:09.095Z,4.17
2018-12-11T13:04:37.309Z,4.73
2018-12-11T13:07:05.506Z,5.07
2018-12-11T13:09:33.778Z,4.73
2018-12-11T13:12:01.937Z,6.67
2018-12-11T13:14:30.223Z,4.33
2018-12-11T13:16:58.554Z,5.03
2018-12-11T13:19:26.731Z,3.93
2018-12-11T13:21:54.888Z,4.57
2018-12-11T13:24:23.104Z,4.60
2018-12-11T13:26:51.345Z,4.10
2018-12-11T13:29:19.519Z,3.80
2018-12-11T13:31:47.684Z,4.20
2018-12-11T13:34:15.849Z,4.17
2018-12-11T13:36:44.008Z,3.90
2018-12-11T13:39:12.181Z,4.20
2018-12-11T13:41:40.346Z,4.13
2018-12-11T13:44:08.799Z,4.03
2018-12-11T13:46:37.245Z,4.30
2018-12-11T13:49:05.603Z,3.97
2018-12-11T13:51:33.769Z,3.47
2018-12-11T13:54:01.966Z,4.27
2018-12-11T13:56:30.169Z,3.63
2018-12-11T13:58:58.384Z,3.03
2018-12-11T14:01:26.565Z,3.23
2018-12-11T14:03:54.740Z,3.70
2018-12-11T14:06:22.901Z,3.17
2018-12-11T14:08:51.428Z,3.20
2018-12-11T14:11:19.629Z,2.80
2018-12-11T14:13:48.055Z,3.47
2018-12-11T14:16:16.404Z,2.87
2018-12-11T14:18:44.645Z,3.70
2018-12-11T14:21:12.809Z,4.23
2018-12-11T14:23:41.052Z,4.37
2018-12-11T14:26:09.328Z,3.20
2018-12-11T14:28:37.512Z,3.20
2018-12-11T14:31:06.071Z,4.07
2018-12-11T14:33:34.588Z,3.87
2018-12-11T14:36:02.797Z,4.17
2018-12-11T14:38:30.961Z,3.70
2018-12-11T14:40:59.254Z,3.83
2018-12-11T14:43:27.451Z,3.93
2018-12-11T14:45:55.675Z,4.47
2018-12-11T14:48:24.029Z,4.50
2018-12-11T14:50:52.186Z,4.13
2018-12-11T14:53:20.372Z,4.33
2018-12-11T14:55:48.528Z,3.33
2018-12-11T14:58:16.690Z,4.00
2018-12-11T15:00:44.848Z,3.87
2018-12-11T15:03:13.100Z,3.90
2018-12-11T15:05:41.264Z,3.90
2018-12-11T15:08:09.436Z,3.63
2018-12-11T15:10:37.684Z,4.23
2018-12-11T15:13:05.940Z,4.30
2018-12-11T15:15:34.188Z,4.33
2018-12-11T15:18:02.975Z,4.17
2018-12-11T15:20:31.305Z,4.07
2018-12-11T15:22:59.476Z,4.33
2018-12-11T15:25:27.709Z,5.60
2018-12-11T15:27:55.903Z,4.53
2018-12-11T15:30:24.178Z,6.10
2018-12-11T15:32:52.344Z,5.03
2018-12-11T15:35:20.513Z,4.73
2018-12-11T15:37:48.680Z,5.13
2018-12-11T15:40:17.006Z,4.80
2018-12-11T15:42:45.176Z,3.87
2018-12-11T15:45:13.340Z,4.87
2018-12-11T15:47:41.625Z,4.90
2018-12-11T15:50:09.965Z,5.27
2018-12-11T15:52:38.124Z,4.30
2018-12-11T15:55:06.571Z,4.90
2018-12-11T15:57:34.744Z,3.90
2018-12-11T16:00:03.522Z,5.20
2018-12-11T16:02:31.921Z,5.23
2018-12-11T16:05:00.088Z,4.67
2018-12-11T16:07:28.417Z,4.90
2018-12-11T16:09:56.603Z,5.70
2018-12-11T16:12:24.849Z,5.97
2018-12-11T16:14:53.057Z,5.00
2018-12-11T16:17:21.254Z,4.57
2018-12-11T16:19:49.437Z,5.50
2018-12-11T16:22:17.695Z,4.30
2018-12-11T16:24:46.640Z,6.40
2018-12-11T16:27:15.180Z,5.23
2018-12-11T16:29:43.363Z,5.63
2018-12-11T16:32:11.520Z,5.20
2018-12-11T16:34:39.985Z,6.43
2018-12-11T16:37:09.419Z,6.37
2018-12-11T16:39:37.584Z,5.70
2018-12-11T16:42:05.869Z,4.97
2018-12-11T16:44:34.053Z,5.73
2018-12-11T16:47:02.305Z,5.57
2018-12-11T16:49:30.803Z,5.00
2018-12-11T16:51:58.984Z,6.97
2018-12-11T16:54:27.147Z,5.83
2018-12-11T16:56:55.338Z,6.77
2018-12-11T16:59:23.528Z,6.47
2018-12-11T17:01:51.717Z,6.40
2018-12-11T17:04:19.881Z,6.00
2018-12-11T17:06:48.051Z,4.93
2018-12-11T17:09:16.217Z,6.10
2018-12-11T17:11:44.884Z,5.60
2018-12-11T17:14:13.039Z,5.43
2018-12-11T17:16:41.212Z,5.60
2018-12-11T17:19:09.381Z,5.30
2018-12-11T17:21:37.545Z,5.70
2018-12-11T17:24:05.717Z,4.27
2018-12-11T17:26:34.200Z,5.67
2018-12-11T17:29:02.440Z,5.13
2018-12-11T17:31:30.856Z,5.50
2018-12-11T17:33:59.104Z,6.10
2018-12-11T17:36:27.269Z,5.90
2018-12-11T17:38:55.435Z,5.80
2018-12-11T17:41:23.662Z,5.00
2018-12-11T17:43:51.905Z,5.53
2018-12-11T17:46:20.105Z,5.33
2018-12-11T17:48:48.263Z,4.73
2018-12-11T17:51:16.801Z,5.80
2018-12-11T17:53:45.245Z,5.57
2018-12-11T17:56:13.417Z,5.43
2018-12-11T17:58:41.571Z,5.17
2018-12-11T18:01:09.816Z,5.67
2018-12-11T18:03:37.975Z,5.50
2018-12-11T18:06:06.156Z,5.10
2018-12-11T18:08:34.392Z,6.63
2018-12-11T18:11:02.551Z,4.80
2018-12-11T18:13:30.709Z,6.93
2018-12-11T18:15:58.880Z,6.80
2018-12-11T18:18:27.036Z,6.60
2018-12-11T18:20:55.199Z,6.47
2018-12-11T18:23:23.389Z,6.00
2018-12-11T18:25:51.594Z,5.93
2018-12-11T18:28:19.860Z,5.37
2018-12-11T18:30:48.039Z,5.47
2018-12-11T18:33:16.284Z,6.13
2018-12-11T18:35:44.448Z,6.20
2018-12-11T18:38:12.622Z,5.23
2018-12-11T18:40:40.864Z,12.70
2018-12-11T18:43:09.285Z,7.57
2018-12-11T18:45:37.933Z,7.33
2018-12-11T18:48:06.499Z,7.93
2018-12-11T18:50:34.752Z,7.10
2018-12-11T18:53:03.016Z,11.20
2018-12-11T18:55:31.184Z,7.90
2018-12-11T18:57:59.339Z,6.73
2018-12-11T19:00:27.641Z,7.63
2018-12-11T19:02:55.849Z,6.57
2018-12-11T19:05:24.045Z,6.33
2018-12-11T19:07:52.217Z,7.23
2018-12-11T19:10:20.868Z,7.43
2018-12-11T19:12:49.124Z,8.70
2018-12-11T19:15:17.363Z,9.33
2018-12-11T19:17:45.528Z,9.87
2018-12-11T19:20:13.880Z,11.27
2018-12-11T19:22:42.048Z,7.90
2018-12-11T19:25:18.542Z,9.77
2018-12-11T19:27:46.969Z,7.60
2018-12-11T19:30:15.213Z,8.73
2018-12-11T19:32:43.404Z,8.27
2018-12-11T19:35:11.716Z,8.87
2018-12-11T19:37:39.891Z,7.40
2018-12-11T19:40:09.369Z,8.90
2018-12-11T19:42:38.449Z,9.03
2018-12-11T19:45:07.112Z,11.20
2018-12-11T19:47:35.285Z,10.90
2018-12-11T19:50:04.180Z,10.30
2018-12-11T19:52:32.432Z,9.20
2018-12-11T19:55:00.600Z,9.17
2018-12-11T19:57:28.819Z,9.33
2018-12-11T19:59:56.997Z,8.63
2018-12-11T20:02:25.193Z,9.87
2018-12-11T20:04:53.361Z,6.47
2018-12-11T20:07:21.631Z,7.07
2018-12-11T20:09:55.072Z,6.40
2018-12-11T20:12:23.359Z,8.33
2018-12-11T20:14:51.555Z,7.87
2018-12-11T20:17:19.724Z,7.43
2018-12-11T20:19:47.900Z,7.10
2018-12-11T20:22:16.264Z,6.43
2018-12-11T20:24:44.492Z,6.63
2018-12-11T20:27:14.970Z,6.40
2018-12-11T20:29:43.842Z,6.13
2018-12-11T20:32:12.766Z,5.53
2018-12-11T20:34:41.270Z,7.53
2018-12-11T20:37:10.719Z,6.47
2018-12-11T20:39:39.464Z,6.40
2018-12-11T20:42:08.773Z,6.43
2018-12-11T20:44:37.485Z,6.43
2018-12-11T20:47:07.827Z,6.63
2018-12-11T20:49:37.729Z,6.40
2018-12-11T20:52:08.047Z,6.27
2018-12-11T20:54:37.620Z,5.27
2018-12-11T20:57:06.348Z,4.57
2018-12-11T20:59:35.211Z,4.50
2018-12-11T21:02:07.678Z,5.37
2018-12-11T21:04:37.577Z,5.17
2018-12-11T21:07:07.613Z,6.00
2018-12-11T21:09:36.044Z,5.83
2018-12-11T21:12:04.282Z,6.67
2018-12-11T21:14:32.494Z,5.20
2018-12-11T21:17:00.683Z,4.80
2018-12-11T21:19:28.879Z,5.80
2018-12-11T21:21:57.072Z,5.33
2018-12-11T21:24:25.740Z,5.57
2018-12-11T21:26:54.613Z,5.27
2018-12-11T21:29:23.157Z,4.90
2018-12-11T21:31:52.408Z,4.73
2018-12-11T21:34:20.592Z,4.70
2018-12-11T21:36:48.864Z,5.47
2018-12-11T21:39:17.032Z,5.63
2018-12-11T21:41:45.209Z,4.97
2018-12-11T21:44:13.478Z,4.30
2018-12-11T21:46:41.814Z,4.53
2018-12-11T21:49:10.068Z,4.93
2018-12-11T21:51:38.282Z,7.40
2018-12-11T21:54:06.494Z,4.87
2018-12-11T21:56:34.680Z,4.93
2018-12-11T21:59:02.952Z,5.33
2018-12-11T22:01:31.136Z,5.23
2018-12-11T22:03:59.391Z,5.37
2018-12-11T22:06:27.656Z,4.67
2018-12-11T22:08:55.843Z,6.17
2018-12-11T22:11:24.136Z,6.00
2018-12-11T22:13:52.317Z,5.53
2018-12-11T22:16:20.497Z,5.77
2018-12-11T22:18:48.680Z,6.10
2018-12-11T22:21:16.853Z,5.27
2018-12-11T22:23:45.134Z,5.87
2018-12-11T22:26:13.473Z,5.30
2018-12-11T22:28:41.668Z,6.07
2018-12-11T22:31:09.937Z,5.77
2018-12-11T22:33:38.137Z,5.97
2018-12-11T22:36:06.341Z,5.40
2018-12-11T22:38:34.532Z,5.87
2018-12-11T22:41:02.764Z,6.10
2018-12-11T22:43:30.965Z,6.00
2018-12-11T22:45:59.645Z,6.80
2018-12-11T22:48:28.120Z,5.87
2018-12-11T22:50:57.065Z,5.67
2018-12-11T22:53:25.625Z,6.13
2018-12-11T22:55:56.971Z,5.70
2018-12-11T22:58:25.152Z,5.63
2018-12-11T23:00:53.629Z,6.00
2018-12-11T23:03:21.904Z,5.53
2018-12-11T23:05:50.228Z,5.67
2018-12-11T23:08:18.497Z,5.47
2018-12-11T23:10:46.768Z,5.97
2018-12-11T23:13:15.786Z,5.80
2018-12-11T23:15:44.001Z,5.77
2018-12-11T23:18:12.280Z,6.80
2018-12-11T23:20:40.425Z,5.40
2018-12-11T23:23:08.876Z,5.33
2018-12-11T23:25:37.028Z,6.13
2018-12-11T23:28:05.272Z,6.07
2018-12-11T23:30:33.445Z,5.57
2018-12-11T23:33:01.612Z,6.17
2018-12-11T23:35:29.777Z,6.57
2018-12-11T23:37:58.025Z,6.27
2018-12-11T23:40:26.184Z,5.33
2018-12-11T23:42:54.351Z,5.37
2018-12-11T23:45:22.512Z,5.53
2018-12-11T23:47:50.752Z,6.03
2018-12-11T23:50:19.008Z,5.70
2018-12-11T23:52:47.169Z,6.60
2018-12-11T23:55:15.424Z,6.23
2018-12-11T23:57:43.592Z,6.03
